Hovedside
METAR-TAF:

METAR-TAF

Lufthavner :

Örnsköldsvik lufthavn

Örnsköldsvik, Sverige

breddegrad: 63-24N, lengdegrad: 018-58E, høyde over havet: 103 m

Gjeldene værobservasjon

Denne rapporten ble laget for 29 minutter siden, klokken 08:20 UTC
Vind 6 kt fra Nordvest
Temperatur -6°C
Luftfuktighet 79%
Trykk 1031 hPa
Sikt 10 km eller mer
ingen skyer under 1500 m og ingen bygeskyer

METAR: ESNO 120820Z 32006KT CAVOK M06/M09 Q1031

Tid: 09:49 (08:49 UTC)

Varsel

Denne rapporten ble laget for 19 minutter siden, klokken 08:30 UTC
Varsel gyldig fra 12. klokken 09 UTC til 12. klokken 18 UTC
Vind 6 kt fra Nord-nordvest
Sikt 10 km eller mer
ingen skyer under 1500 m og ingen bygeskyer

TAF: ESNO 120830Z 1209/1218 33006KT CAVOK

Værobservasjoner og værvarsel for over 4000 flyplasser (METAR- og TAF-rapporter).

Tilgjengelige stasjoner er representert av de røde og gule prikkene på kartet.

Hold musepekeren over prikken for å se navnet på stasjonen.

Klikk så for å se værobservasjoner og -varsler.

For å forandre kartet kan du klikke på den grønne knappen med svart kryss for å zoome inn, på den grønne knappen med strek for å zoome ut, eller på de grønne pilene for å se tilstøtende kart.


METAR-TAF: